sensor_id;sensor_type;location;lat;lon;timestamp;P1;durP1;ratioP1;P2;durP2;ratioP2
2434;SDS011;1228;51.022;6.764;2022-12-11T00:00:15;40.43;;;22.30;;
2434;SDS011;1228;51.022;6.764;2022-12-11T00:02:41;32.33;;;19.53;;
2434;SDS011;1228;51.022;6.764;2022-12-11T00:05:06;25.13;;;17.73;;
2434;SDS011;1228;51.022;6.764;2022-12-11T00:07:32;32.07;;;19.10;;
2434;SDS011;1228;51.022;6.764;2022-12-11T00:09:58;31.57;;;16.77;;
2434;SDS011;1228;51.022;6.764;2022-12-11T00:12:23;38.10;;;16.80;;
2434;SDS011;1228;51.022;6.764;2022-12-11T00:14:49;37.77;;;20.80;;
2434;SDS011;1228;51.022;6.764;2022-12-11T00:17:15;28.00;;;16.57;;
2434;SDS011;1228;51.022;6.764;2022-12-11T00:19:40;28.33;;;16.17;;
2434;SDS011;1228;51.022;6.764;2022-12-11T00:22:06;23.43;;;15.87;;
2434;SDS011;1228;51.022;6.764;2022-12-11T00:24:32;37.53;;;19.37;;
2434;SDS011;1228;51.022;6.764;2022-12-11T00:26:57;26.00;;;15.33;;
2434;SDS011;1228;51.022;6.764;2022-12-11T00:29:24;29.20;;;15.73;;
2434;SDS011;1228;51.022;6.764;2022-12-11T00:31:49;27.83;;;17.23;;
2434;SDS011;1228;51.022;6.764;2022-12-11T00:34:15;35.87;;;16.77;;
2434;SDS011;1228;51.022;6.764;2022-12-11T00:36:41;26.37;;;13.13;;
2434;SDS011;1228;51.022;6.764;2022-12-11T00:39:06;26.93;;;15.97;;
2434;SDS011;1228;51.022;6.764;2022-12-11T00:41:32;32.60;;;16.67;;
2434;SDS011;1228;51.022;6.764;2022-12-11T00:43:57;31.70;;;17.63;;
2434;SDS011;1228;51.022;6.764;2022-12-11T00:46:23;30.93;;;17.73;;
2434;SDS011;1228;51.022;6.764;2022-12-11T00:48:48;29.63;;;20.27;;
2434;SDS011;1228;51.022;6.764;2022-12-11T00:51:15;37.77;;;19.03;;
2434;SDS011;1228;51.022;6.764;2022-12-11T00:53:41;24.73;;;16.60;;
2434;SDS011;1228;51.022;6.764;2022-12-11T00:56:19;30.57;;;17.37;;
2434;SDS011;1228;51.022;6.764;2022-12-11T00:58:47;44.80;;;16.27;;
2434;SDS011;1228;51.022;6.764;2022-12-11T01:01:14;33.97;;;18.07;;
2434;SDS011;1228;51.022;6.764;2022-12-11T01:03:43;29.83;;;16.70;;
2434;SDS011;1228;51.022;6.764;2022-12-11T01:06:11;27.17;;;15.83;;
2434;SDS011;1228;51.022;6.764;2022-12-11T01:08:39;35.80;;;18.40;;
2434;SDS011;1228;51.022;6.764;2022-12-11T01:11:06;34.80;;;16.23;;
2434;SDS011;1228;51.022;6.764;2022-12-11T01:13:35;41.47;;;19.27;;
2434;SDS011;1228;51.022;6.764;2022-12-11T01:16:05;44.87;;;17.30;;
2434;SDS011;1228;51.022;6.764;2022-12-11T01:18:35;34.43;;;18.97;;
2434;SDS011;1228;51.022;6.764;2022-12-11T01:21:09;36.63;;;18.40;;
2434;SDS011;1228;51.022;6.764;2022-12-11T01:23:36;42.67;;;17.77;;
2434;SDS011;1228;51.022;6.764;2022-12-11T01:26:09;25.33;;;16.40;;
2434;SDS011;1228;51.022;6.764;2022-12-11T01:28:37;36.87;;;18.90;;
2434;SDS011;1228;51.022;6.764;2022-12-11T01:31:06;34.97;;;20.57;;
2434;SDS011;1228;51.022;6.764;2022-12-11T01:33:32;28.80;;;14.73;;
2434;SDS011;1228;51.022;6.764;2022-12-11T01:35:58;31.73;;;16.43;;
2434;SDS011;1228;51.022;6.764;2022-12-11T01:38:24;46.10;;;16.87;;
2434;SDS011;1228;51.022;6.764;2022-12-11T01:40:49;30.97;;;16.77;;
2434;SDS011;1228;51.022;6.764;2022-12-11T01:43:15;23.50;;;16.80;;
2434;SDS011;1228;51.022;6.764;2022-12-11T01:45:42;42.73;;;17.27;;
2434;SDS011;1228;51.022;6.764;2022-12-11T01:53:32;32.83;;;16.20;;
2434;SDS011;1228;51.022;6.764;2022-12-11T01:56:01;31.80;;;19.13;;
2434;SDS011;1228;51.022;6.764;2022-12-11T01:58:30;23.73;;;15.97;;
2434;SDS011;1228;51.022;6.764;2022-12-11T02:00:59;23.63;;;14.23;;
2434;SDS011;1228;51.022;6.764;2022-12-11T02:03:26;21.20;;;14.43;;
2434;SDS011;1228;51.022;6.764;2022-12-11T02:05:51;24.43;;;13.40;;
2434;SDS011;1228;51.022;6.764;2022-12-11T02:08:17;33.27;;;15.93;;
2434;SDS011;1228;51.022;6.764;2022-12-11T02:13:50;35.57;;;15.97;;
2434;SDS011;1228;51.022;6.764;2022-12-11T02:16:20;26.93;;;15.40;;
2434;SDS011;1228;51.022;6.764;2022-12-11T02:19:17;26.97;;;15.43;;
2434;SDS011;1228;51.022;6.764;2022-12-11T02:21:55;28.50;;;15.33;;
2434;SDS011;1228;51.022;6.764;2022-12-11T02:24:45;29.83;;;14.87;;
2434;SDS011;1228;51.022;6.764;2022-12-11T02:29:55;18.10;;;13.60;;
2434;SDS011;1228;51.022;6.764;2022-12-11T02:32:33;20.77;;;15.03;;
2434;SDS011;1228;51.022;6.764;2022-12-11T02:35:23;21.67;;;15.43;;
2434;SDS011;1228;51.022;6.764;2022-12-11T02:37:58;20.07;;;13.30;;
2434;SDS011;1228;51.022;6.764;2022-12-11T02:40:29;16.57;;;14.27;;
2434;SDS011;1228;51.022;6.764;2022-12-11T02:42:57;22.47;;;16.17;;
2434;SDS011;1228;51.022;6.764;2022-12-11T02:45:26;21.77;;;14.90;;
2434;SDS011;1228;51.022;6.764;2022-12-11T02:47:53;27.53;;;16.37;;
2434;SDS011;1228;51.022;6.764;2022-12-11T02:50:22;22.00;;;15.67;;
2434;SDS011;1228;51.022;6.764;2022-12-11T02:52:50;23.30;;;15.23;;
2434;SDS011;1228;51.022;6.764;2022-12-11T02:55:19;34.40;;;17.40;;
2434;SDS011;1228;51.022;6.764;2022-12-11T02:57:51;26.00;;;15.50;;
2434;SDS011;1228;51.022;6.764;2022-12-11T03:00:26;24.57;;;16.57;;
2434;SDS011;1228;51.022;6.764;2022-12-11T03:02:51;22.23;;;14.97;;
2434;SDS011;1228;51.022;6.764;2022-12-11T03:05:17;25.27;;;14.10;;
2434;SDS011;1228;51.022;6.764;2022-12-11T03:07:43;25.27;;;14.87;;
2434;SDS011;1228;51.022;6.764;2022-12-11T03:10:10;23.10;;;13.17;;
2434;SDS011;1228;51.022;6.764;2022-12-11T03:12:39;18.70;;;15.47;;
2434;SDS011;1228;51.022;6.764;2022-12-11T03:15:08;29.80;;;17.03;;
2434;SDS011;1228;51.022;6.764;2022-12-11T03:17:40;19.33;;;13.07;;
2434;SDS011;1228;51.022;6.764;2022-12-11T03:20:40;33.53;;;15.57;;
2434;SDS011;1228;51.022;6.764;2022-12-11T03:23:19;28.63;;;16.60;;
2434;SDS011;1228;51.022;6.764;2022-12-11T03:25:58;27.37;;;14.43;;
2434;SDS011;1228;51.022;6.764;2022-12-11T03:31:24;25.43;;;15.73;;
2434;SDS011;1228;51.022;6.764;2022-12-11T03:33:54;17.10;;;13.57;;
2434;SDS011;1228;51.022;6.764;2022-12-11T03:36:29;17.40;;;13.33;;
2434;SDS011;1228;51.022;6.764;2022-12-11T03:38:59;28.23;;;14.80;;
2434;SDS011;1228;51.022;6.764;2022-12-11T03:41:30;26.10;;;12.70;;
2434;SDS011;1228;51.022;6.764;2022-12-11T03:43:58;20.17;;;12.80;;
2434;SDS011;1228;51.022;6.764;2022-12-11T03:46:26;15.63;;;12.33;;
2434;SDS011;1228;51.022;6.764;2022-12-11T03:49:00;13.87;;;11.73;;
2434;SDS011;1228;51.022;6.764;2022-12-11T03:51:30;23.60;;;13.17;;
2434;SDS011;1228;51.022;6.764;2022-12-11T03:53:58;14.13;;;12.53;;
2434;SDS011;1228;51.022;6.764;2022-12-11T03:56:24;19.37;;;13.13;;
2434;SDS011;1228;51.022;6.764;2022-12-11T03:58:52;16.33;;;12.13;;
2434;SDS011;1228;51.022;6.764;2022-12-11T04:01:18;17.57;;;13.67;;
2434;SDS011;1228;51.022;6.764;2022-12-11T04:03:44;19.20;;;13.27;;
2434;SDS011;1228;51.022;6.764;2022-12-11T04:06:09;21.23;;;13.43;;
2434;SDS011;1228;51.022;6.764;2022-12-11T04:08:35;17.87;;;12.60;;
2434;SDS011;1228;51.022;6.764;2022-12-11T04:11:01;18.73;;;13.57;;
2434;SDS011;1228;51.022;6.764;2022-12-11T04:13:47;16.03;;;13.17;;
2434;SDS011;1228;51.022;6.764;2022-12-11T04:16:32;29.87;;;14.83;;
2434;SDS011;1228;51.022;6.764;2022-12-11T04:18:58;17.97;;;12.93;;
2434;SDS011;1228;51.022;6.764;2022-12-11T04:21:42;17.07;;;11.30;;
2434;SDS011;1228;51.022;6.764;2022-12-11T04:24:26;12.27;;;11.03;;
2434;SDS011;1228;51.022;6.764;2022-12-11T04:26:52;16.73;;;12.63;;
2434;SDS011;1228;51.022;6.764;2022-12-11T04:29:17;21.80;;;10.40;;
2434;SDS011;1228;51.022;6.764;2022-12-11T04:31:43;13.63;;;12.30;;
2434;SDS011;1228;51.022;6.764;2022-12-11T04:34:09;23.60;;;12.70;;
2434;SDS011;1228;51.022;6.764;2022-12-11T04:36:35;13.13;;;10.43;;
2434;SDS011;1228;51.022;6.764;2022-12-11T04:39:02;15.03;;;11.33;;
2434;SDS011;1228;51.022;6.764;2022-12-11T04:41:29;15.43;;;11.23;;
2434;SDS011;1228;51.022;6.764;2022-12-11T04:43:55;14.00;;;12.47;;
2434;SDS011;1228;51.022;6.764;2022-12-11T04:46:21;14.27;;;12.17;;
2434;SDS011;1228;51.022;6.764;2022-12-11T04:48:48;17.30;;;12.23;;
2434;SDS011;1228;51.022;6.764;2022-12-11T04:51:14;12.80;;;11.33;;
2434;SDS011;1228;51.022;6.764;2022-12-11T04:53:40;13.47;;;11.37;;
2434;SDS011;1228;51.022;6.764;2022-12-11T04:56:07;14.43;;;11.93;;
2434;SDS011;1228;51.022;6.764;2022-12-11T04:58:35;22.47;;;14.40;;
2434;SDS011;1228;51.022;6.764;2022-12-11T05:01:07;14.70;;;13.30;;
2434;SDS011;1228;51.022;6.764;2022-12-11T05:03:37;13.70;;;10.97;;
2434;SDS011;1228;51.022;6.764;2022-12-11T05:06:03;15.10;;;12.80;;
2434;SDS011;1228;51.022;6.764;2022-12-11T05:08:29;17.60;;;11.73;;
2434;SDS011;1228;51.022;6.764;2022-12-11T05:10:58;18.80;;;12.43;;
2434;SDS011;1228;51.022;6.764;2022-12-11T05:13:25;14.07;;;12.43;;
2434;SDS011;1228;51.022;6.764;2022-12-11T05:15:51;13.63;;;11.20;;
2434;SDS011;1228;51.022;6.764;2022-12-11T05:18:17;17.87;;;13.10;;
2434;SDS011;1228;51.022;6.764;2022-12-11T05:20:43;20.27;;;14.13;;
2434;SDS011;1228;51.022;6.764;2022-12-11T05:23:09;13.27;;;12.00;;
2434;SDS011;1228;51.022;6.764;2022-12-11T05:25:34;13.00;;;11.20;;
2434;SDS011;1228;51.022;6.764;2022-12-11T05:28:00;12.40;;;10.97;;
2434;SDS011;1228;51.022;6.764;2022-12-11T05:30:26;22.10;;;12.40;;
2434;SDS011;1228;51.022;6.764;2022-12-11T05:32:51;15.33;;;12.40;;
2434;SDS011;1228;51.022;6.764;2022-12-11T05:35:17;17.20;;;12.90;;
2434;SDS011;1228;51.022;6.764;2022-12-11T05:37:42;20.60;;;14.07;;
2434;SDS011;1228;51.022;6.764;2022-12-11T05:40:08;11.33;;;10.10;;
2434;SDS011;1228;51.022;6.764;2022-12-11T05:42:36;14.03;;;12.63;;
2434;SDS011;1228;51.022;6.764;2022-12-11T05:45:02;15.33;;;11.13;;
2434;SDS011;1228;51.022;6.764;2022-12-11T05:47:29;14.13;;;11.13;;
2434;SDS011;1228;51.022;6.764;2022-12-11T05:49:55;23.83;;;13.50;;
2434;SDS011;1228;51.022;6.764;2022-12-11T05:52:21;13.03;;;11.10;;
2434;SDS011;1228;51.022;6.764;2022-12-11T05:54:47;19.73;;;10.93;;
2434;SDS011;1228;51.022;6.764;2022-12-11T05:57:14;16.60;;;12.13;;
2434;SDS011;1228;51.022;6.764;2022-12-11T05:59:40;16.20;;;13.57;;
2434;SDS011;1228;51.022;6.764;2022-12-11T06:02:05;15.10;;;11.67;;
2434;SDS011;1228;51.022;6.764;2022-12-11T06:04:31;13.00;;;11.77;;
2434;SDS011;1228;51.022;6.764;2022-12-11T06:06:57;14.33;;;11.13;;
2434;SDS011;1228;51.022;6.764;2022-12-11T06:09:23;21.40;;;13.93;;
2434;SDS011;1228;51.022;6.764;2022-12-11T06:11:48;15.93;;;11.83;;
2434;SDS011;1228;51.022;6.764;2022-12-11T06:14:14;20.60;;;14.30;;
2434;SDS011;1228;51.022;6.764;2022-12-11T06:16:39;14.53;;;11.93;;
2434;SDS011;1228;51.022;6.764;2022-12-11T06:19:05;15.17;;;11.93;;
2434;SDS011;1228;51.022;6.764;2022-12-11T06:21:31;12.40;;;11.13;;
2434;SDS011;1228;51.022;6.764;2022-12-11T06:23:59;13.23;;;11.97;;
2434;SDS011;1228;51.022;6.764;2022-12-11T06:26:26;13.37;;;10.40;;
2434;SDS011;1228;51.022;6.764;2022-12-11T06:28:53;13.67;;;11.83;;
2434;SDS011;1228;51.022;6.764;2022-12-11T06:31:19;22.50;;;11.97;;
2434;SDS011;1228;51.022;6.764;2022-12-11T06:33:45;12.20;;;11.00;;
2434;SDS011;1228;51.022;6.764;2022-12-11T06:36:15;13.97;;;12.50;;
2434;SDS011;1228;51.022;6.764;2022-12-11T06:38:43;19.10;;;11.80;;
2434;SDS011;1228;51.022;6.764;2022-12-11T06:41:09;14.63;;;13.13;;
2434;SDS011;1228;51.022;6.764;2022-12-11T06:43:36;14.90;;;12.53;;
2434;SDS011;1228;51.022;6.764;2022-12-11T06:46:08;19.63;;;11.93;;
2434;SDS011;1228;51.022;6.764;2022-12-11T06:48:35;19.93;;;12.57;;
2434;SDS011;1228;51.022;6.764;2022-12-11T06:51:08;16.27;;;12.93;;
2434;SDS011;1228;51.022;6.764;2022-12-11T06:53:36;15.30;;;12.07;;
2434;SDS011;1228;51.022;6.764;2022-12-11T06:56:06;15.40;;;13.80;;
2434;SDS011;1228;51.022;6.764;2022-12-11T06:58:34;14.93;;;12.93;;
2434;SDS011;1228;51.022;6.764;2022-12-11T07:01:01;16.13;;;13.20;;
2434;SDS011;1228;51.022;6.764;2022-12-11T07:03:27;17.20;;;12.90;;
2434;SDS011;1228;51.022;6.764;2022-12-11T07:05:53;17.63;;;13.23;;
2434;SDS011;1228;51.022;6.764;2022-12-11T07:08:18;24.23;;;12.57;;
2434;SDS011;1228;51.022;6.764;2022-12-11T07:10:44;12.67;;;11.33;;
2434;SDS011;1228;51.022;6.764;2022-12-11T07:13:09;12.87;;;11.73;;
2434;SDS011;1228;51.022;6.764;2022-12-11T07:15:35;21.13;;;13.70;;
2434;SDS011;1228;51.022;6.764;2022-12-11T07:18:01;16.97;;;13.40;;
2434;SDS011;1228;51.022;6.764;2022-12-11T07:20:26;18.67;;;14.70;;
2434;SDS011;1228;51.022;6.764;2022-12-11T07:22:52;17.87;;;12.67;;
2434;SDS011;1228;51.022;6.764;2022-12-11T07:25:18;19.77;;;13.07;;
2434;SDS011;1228;51.022;6.764;2022-12-11T07:27:44;16.90;;;12.13;;
2434;SDS011;1228;51.022;6.764;2022-12-11T07:30:10;17.40;;;12.87;;
2434;SDS011;1228;51.022;6.764;2022-12-11T07:32:36;15.57;;;11.53;;
2434;SDS011;1228;51.022;6.764;2022-12-11T07:35:02;13.50;;;11.83;;
2434;SDS011;1228;51.022;6.764;2022-12-11T07:37:28;16.50;;;12.53;;
2434;SDS011;1228;51.022;6.764;2022-12-11T07:39:54;18.30;;;12.67;;
2434;SDS011;1228;51.022;6.764;2022-12-11T07:42:19;14.30;;;12.80;;
2434;SDS011;1228;51.022;6.764;2022-12-11T07:44:45;20.97;;;12.93;;
2434;SDS011;1228;51.022;6.764;2022-12-11T07:47:11;19.70;;;12.30;;
2434;SDS011;1228;51.022;6.764;2022-12-11T07:49:36;13.80;;;12.30;;
2434;SDS011;1228;51.022;6.764;2022-12-11T07:52:02;13.00;;;11.70;;
2434;SDS011;1228;51.022;6.764;2022-12-11T07:54:28;21.60;;;12.40;;
2434;SDS011;1228;51.022;6.764;2022-12-11T07:56:53;14.47;;;12.47;;
2434;SDS011;1228;51.022;6.764;2022-12-11T07:59:19;21.33;;;13.67;;
2434;SDS011;1228;51.022;6.764;2022-12-11T08:01:45;25.03;;;11.83;;
2434;SDS011;1228;51.022;6.764;2022-12-11T08:04:11;15.33;;;12.27;;
2434;SDS011;1228;51.022;6.764;2022-12-11T08:06:39;20.20;;;12.03;;
2434;SDS011;1228;51.022;6.764;2022-12-11T08:09:07;15.00;;;12.60;;
2434;SDS011;1228;51.022;6.764;2022-12-11T08:11:34;15.73;;;12.43;;
2434;SDS011;1228;51.022;6.764;2022-12-11T08:14:00;14.53;;;12.73;;
2434;SDS011;1228;51.022;6.764;2022-12-11T08:16:27;18.47;;;12.87;;
2434;SDS011;1228;51.022;6.764;2022-12-11T08:18:53;16.43;;;13.40;;
2434;SDS011;1228;51.022;6.764;2022-12-11T08:21:20;22.80;;;12.70;;
2434;SDS011;1228;51.022;6.764;2022-12-11T08:23:48;20.77;;;12.93;;
2434;SDS011;1228;51.022;6.764;2022-12-11T08:26:16;16.27;;;13.13;;
2434;SDS011;1228;51.022;6.764;2022-12-11T08:28:43;18.27;;;13.20;;
2434;SDS011;1228;51.022;6.764;2022-12-11T08:31:09;22.10;;;13.57;;
2434;SDS011;1228;51.022;6.764;2022-12-11T08:33:37;20.60;;;13.87;;
2434;SDS011;1228;51.022;6.764;2022-12-11T08:36:04;14.03;;;12.53;;
2434;SDS011;1228;51.022;6.764;2022-12-11T08:38:32;18.40;;;14.67;;
2434;SDS011;1228;51.022;6.764;2022-12-11T08:40:58;18.87;;;11.30;;
2434;SDS011;1228;51.022;6.764;2022-12-11T08:43:24;13.87;;;12.40;;
2434;SDS011;1228;51.022;6.764;2022-12-11T08:45:49;14.53;;;12.00;;
2434;SDS011;1228;51.022;6.764;2022-12-11T08:48:15;16.10;;;13.20;;
2434;SDS011;1228;51.022;6.764;2022-12-11T08:50:41;15.90;;;13.53;;
2434;SDS011;1228;51.022;6.764;2022-12-11T08:53:07;16.70;;;13.20;;
2434;SDS011;1228;51.022;6.764;2022-12-11T08:55:32;16.10;;;12.97;;
2434;SDS011;1228;51.022;6.764;2022-12-11T08:57:58;13.70;;;11.90;;
2434;SDS011;1228;51.022;6.764;2022-12-11T09:00:24;26.30;;;14.10;;
2434;SDS011;1228;51.022;6.764;2022-12-11T09:02:49;23.57;;;15.70;;
2434;SDS011;1228;51.022;6.764;2022-12-11T09:05:15;16.13;;;13.97;;
2434;SDS011;1228;51.022;6.764;2022-12-11T09:07:41;15.80;;;11.63;;
2434;SDS011;1228;51.022;6.764;2022-12-11T09:10:07;15.23;;;12.40;;
2434;SDS011;1228;51.022;6.764;2022-12-11T09:12:34;14.70;;;11.90;;
2434;SDS011;1228;51.022;6.764;2022-12-11T09:15:00;20.27;;;13.37;;
2434;SDS011;1228;51.022;6.764;2022-12-11T09:17:25;19.50;;;12.70;;
2434;SDS011;1228;51.022;6.764;2022-12-11T09:19:51;15.37;;;11.97;;
2434;SDS011;1228;51.022;6.764;2022-12-11T09:22:17;24.27;;;14.67;;
2434;SDS011;1228;51.022;6.764;2022-12-11T09:24:42;18.20;;;13.77;;
2434;SDS011;1228;51.022;6.764;2022-12-11T09:27:08;27.17;;;13.37;;
2434;SDS011;1228;51.022;6.764;2022-12-11T09:29:34;18.23;;;12.03;;
2434;SDS011;1228;51.022;6.764;2022-12-11T09:31:59;21.73;;;14.03;;
2434;SDS011;1228;51.022;6.764;2022-12-11T09:34:25;13.27;;;11.50;;
2434;SDS011;1228;51.022;6.764;2022-12-11T09:36:50;22.33;;;13.00;;
2434;SDS011;1228;51.022;6.764;2022-12-11T09:39:16;20.37;;;13.73;;
2434;SDS011;1228;51.022;6.764;2022-12-11T09:44:53;21.13;;;14.03;;
2434;SDS011;1228;51.022;6.764;2022-12-11T09:47:22;17.70;;;13.00;;
2434;SDS011;1228;51.022;6.764;2022-12-11T09:55:15;21.50;;;12.30;;
2434;SDS011;1228;51.022;6.764;2022-12-11T09:58:02;19.53;;;12.83;;
2434;SDS011;1228;51.022;6.764;2022-12-11T10:00:44;21.80;;;12.37;;
2434;SDS011;1228;51.022;6.764;2022-12-11T10:14:18;24.33;;;15.97;;
2434;SDS011;1228;51.022;6.764;2022-12-11T10:17:06;23.33;;;14.23;;
2434;SDS011;1228;51.022;6.764;2022-12-11T10:19:59;26.90;;;15.10;;
2434;SDS011;1228;51.022;6.764;2022-12-11T10:22:34;29.40;;;15.07;;
2434;SDS011;1228;51.022;6.764;2022-12-11T10:25:04;26.07;;;15.53;;
2434;SDS011;1228;51.022;6.764;2022-12-11T10:27:34;22.70;;;15.53;;
2434;SDS011;1228;51.022;6.764;2022-12-11T10:30:13;23.90;;;14.83;;
2434;SDS011;1228;51.022;6.764;2022-12-11T10:32:49;25.47;;;14.67;;
2434;SDS011;1228;51.022;6.764;2022-12-11T10:35:32;18.67;;;12.03;;
2434;SDS011;1228;51.022;6.764;2022-12-11T10:38:37;19.07;;;13.40;;
2434;SDS011;1228;51.022;6.764;2022-12-11T10:43:36;20.80;;;14.00;;
2434;SDS011;1228;51.022;6.764;2022-12-11T10:46:04;25.13;;;14.50;;
2434;SDS011;1228;51.022;6.764;2022-12-11T10:48:44;31.17;;;15.80;;
2434;SDS011;1228;51.022;6.764;2022-12-11T10:51:17;17.97;;;14.23;;
2434;SDS011;1228;51.022;6.764;2022-12-11T10:53:52;27.47;;;12.97;;
2434;SDS011;1228;51.022;6.764;2022-12-11T10:56:29;21.70;;;14.67;;
2434;SDS011;1228;51.022;6.764;2022-12-11T10:58:57;29.40;;;16.43;;
2434;SDS011;1228;51.022;6.764;2022-12-11T11:01:26;19.90;;;13.80;;
2434;SDS011;1228;51.022;6.764;2022-12-11T11:06:30;15.93;;;12.27;;
2434;SDS011;1228;51.022;6.764;2022-12-11T11:08:57;27.63;;;12.37;;
2434;SDS011;1228;51.022;6.764;2022-12-11T11:14:16;18.30;;;12.10;;
2434;SDS011;1228;51.022;6.764;2022-12-11T11:16:44;27.67;;;14.90;;
2434;SDS011;1228;51.022;6.764;2022-12-11T11:19:17;36.63;;;14.73;;
2434;SDS011;1228;51.022;6.764;2022-12-11T11:21:49;22.17;;;12.83;;
2434;SDS011;1228;51.022;6.764;2022-12-11T11:27:35;24.67;;;13.17;;
2434;SDS011;1228;51.022;6.764;2022-12-11T11:30:23;19.33;;;13.50;;
2434;SDS011;1228;51.022;6.764;2022-12-11T11:33:04;23.33;;;14.13;;
2434;SDS011;1228;51.022;6.764;2022-12-11T11:35:38;36.27;;;16.53;;
2434;SDS011;1228;51.022;6.764;2022-12-11T11:38:17;33.40;;;16.37;;
2434;SDS011;1228;51.022;6.764;2022-12-11T11:40:47;32.67;;;16.37;;
2434;SDS011;1228;51.022;6.764;2022-12-11T11:51:30;20.93;;;14.43;;
2434;SDS011;1228;51.022;6.764;2022-12-11T11:54:06;24.57;;;15.00;;
2434;SDS011;1228;51.022;6.764;2022-12-11T11:56:42;27.13;;;16.40;;
2434;SDS011;1228;51.022;6.764;2022-12-11T11:59:13;34.40;;;15.03;;
2434;SDS011;1228;51.022;6.764;2022-12-11T12:01:47;23.63;;;14.57;;
2434;SDS011;1228;51.022;6.764;2022-12-11T12:04:13;32.73;;;14.73;;
2434;SDS011;1228;51.022;6.764;2022-12-11T12:06:56;28.60;;;15.90;;
2434;SDS011;1228;51.022;6.764;2022-12-11T12:09:48;31.30;;;15.83;;
2434;SDS011;1228;51.022;6.764;2022-12-11T12:14:58;21.53;;;14.10;;
2434;SDS011;1228;51.022;6.764;2022-12-11T12:17:54;37.10;;;16.07;;
2434;SDS011;1228;51.022;6.764;2022-12-11T12:25:43;14.27;;;12.87;;
2434;SDS011;1228;51.022;6.764;2022-12-11T12:31:19;19.83;;;14.23;;
2434;SDS011;1228;51.022;6.764;2022-12-11T12:34:12;23.90;;;13.80;;
2434;SDS011;1228;51.022;6.764;2022-12-11T12:36:53;30.50;;;15.07;;
2434;SDS011;1228;51.022;6.764;2022-12-11T12:42:29;28.13;;;13.93;;
2434;SDS011;1228;51.022;6.764;2022-12-11T12:47:38;18.67;;;13.40;;
2434;SDS011;1228;51.022;6.764;2022-12-11T12:50:11;25.40;;;15.43;;
2434;SDS011;1228;51.022;6.764;2022-12-11T12:52:41;35.00;;;16.57;;
2434;SDS011;1228;51.022;6.764;2022-12-11T12:58:03;42.20;;;17.97;;
2434;SDS011;1228;51.022;6.764;2022-12-11T13:00:34;22.97;;;16.00;;
2434;SDS011;1228;51.022;6.764;2022-12-11T13:03:02;22.60;;;16.43;;
2434;SDS011;1228;51.022;6.764;2022-12-11T13:05:38;16.03;;;12.53;;
2434;SDS011;1228;51.022;6.764;2022-12-11T13:08:10;22.93;;;13.87;;
2434;SDS011;1228;51.022;6.764;2022-12-11T13:10:38;34.27;;;14.07;;
2434;SDS011;1228;51.022;6.764;2022-12-11T13:18:41;19.90;;;13.17;;
2434;SDS011;1228;51.022;6.764;2022-12-11T13:21:24;23.37;;;14.90;;
2434;SDS011;1228;51.022;6.764;2022-12-11T13:26:48;23.83;;;14.80;;
2434;SDS011;1228;51.022;6.764;2022-12-11T13:29:31;21.57;;;13.97;;
2434;SDS011;1228;51.022;6.764;2022-12-11T13:32:21;22.07;;;15.67;;
2434;SDS011;1228;51.022;6.764;2022-12-11T13:34:55;20.10;;;14.27;;
2434;SDS011;1228;51.022;6.764;2022-12-11T13:37:32;27.67;;;13.57;;
2434;SDS011;1228;51.022;6.764;2022-12-11T13:40:06;27.40;;;13.37;;
2434;SDS011;1228;51.022;6.764;2022-12-11T13:42:46;28.17;;;15.00;;
2434;SDS011;1228;51.022;6.764;2022-12-11T13:45:21;20.27;;;13.00;;
2434;SDS011;1228;51.022;6.764;2022-12-11T13:47:51;25.93;;;14.50;;
2434;SDS011;1228;51.022;6.764;2022-12-11T13:50:19;24.10;;;13.97;;
2434;SDS011;1228;51.022;6.764;2022-12-11T13:52:53;18.57;;;13.67;;
2434;SDS011;1228;51.022;6.764;2022-12-11T13:55:21;28.47;;;14.20;;
2434;SDS011;1228;51.022;6.764;2022-12-11T13:57:55;18.73;;;12.07;;
2434;SDS011;1228;51.022;6.764;2022-12-11T14:00:23;24.10;;;14.80;;
2434;SDS011;1228;51.022;6.764;2022-12-11T14:02:50;17.90;;;13.30;;
2434;SDS011;1228;51.022;6.764;2022-12-11T14:05:17;19.40;;;12.27;;
2434;SDS011;1228;51.022;6.764;2022-12-11T14:10:25;19.53;;;14.07;;
2434;SDS011;1228;51.022;6.764;2022-12-11T14:12:58;19.83;;;13.70;;
2434;SDS011;1228;51.022;6.764;2022-12-11T14:15:37;19.57;;;14.90;;
2434;SDS011;1228;51.022;6.764;2022-12-11T14:18:12;24.90;;;12.97;;
2434;SDS011;1228;51.022;6.764;2022-12-11T14:20:42;21.67;;;14.77;;
2434;SDS011;1228;51.022;6.764;2022-12-11T14:23:18;20.93;;;14.30;;
2434;SDS011;1228;51.022;6.764;2022-12-11T14:25:56;19.13;;;13.50;;
2434;SDS011;1228;51.022;6.764;2022-12-11T14:28:24;17.67;;;14.33;;
2434;SDS011;1228;51.022;6.764;2022-12-11T14:30:55;28.67;;;13.33;;
2434;SDS011;1228;51.022;6.764;2022-12-11T14:33:27;24.67;;;13.60;;
2434;SDS011;1228;51.022;6.764;2022-12-11T14:35:57;22.27;;;13.67;;
2434;SDS011;1228;51.022;6.764;2022-12-11T14:41:09;19.50;;;14.33;;
2434;SDS011;1228;51.022;6.764;2022-12-11T14:43:42;19.83;;;14.83;;
2434;SDS011;1228;51.022;6.764;2022-12-11T14:46:15;18.50;;;13.57;;
2434;SDS011;1228;51.022;6.764;2022-12-11T14:48:45;20.50;;;14.93;;
2434;SDS011;1228;51.022;6.764;2022-12-11T14:51:18;34.03;;;17.20;;
2434;SDS011;1228;51.022;6.764;2022-12-11T14:53:45;18.50;;;13.97;;
2434;SDS011;1228;51.022;6.764;2022-12-11T14:56:33;26.57;;;16.20;;
2434;SDS011;1228;51.022;6.764;2022-12-11T14:58:59;29.50;;;16.83;;
2434;SDS011;1228;51.022;6.764;2022-12-11T15:01:32;25.33;;;14.47;;
2434;SDS011;1228;51.022;6.764;2022-12-11T15:04:21;19.77;;;15.47;;
2434;SDS011;1228;51.022;6.764;2022-12-11T15:06:51;21.33;;;14.67;;
2434;SDS011;1228;51.022;6.764;2022-12-11T15:11:45;25.03;;;15.13;;
2434;SDS011;1228;51.022;6.764;2022-12-11T15:14:13;20.43;;;14.23;;
2434;SDS011;1228;51.022;6.764;2022-12-11T15:16:42;18.37;;;12.97;;
2434;SDS011;1228;51.022;6.764;2022-12-11T15:19:41;29.47;;;14.60;;
2434;SDS011;1228;51.022;6.764;2022-12-11T15:22:03;24.77;;;14.63;;
2434;SDS011;1228;51.022;6.764;2022-12-11T15:24:37;25.27;;;15.03;;
2434;SDS011;1228;51.022;6.764;2022-12-11T15:27:05;25.93;;;14.50;;
2434;SDS011;1228;51.022;6.764;2022-12-11T15:29:47;18.50;;;13.10;;
2434;SDS011;1228;51.022;6.764;2022-12-11T15:32:16;23.17;;;16.07;;
2434;SDS011;1228;51.022;6.764;2022-12-11T15:39:51;24.87;;;14.57;;
2434;SDS011;1228;51.022;6.764;2022-12-11T15:44:57;30.40;;;15.77;;
2434;SDS011;1228;51.022;6.764;2022-12-11T15:47:24;25.43;;;15.03;;
2434;SDS011;1228;51.022;6.764;2022-12-11T15:50:52;25.83;;;15.80;;
2434;SDS011;1228;51.022;6.764;2022-12-11T15:52:47;19.80;;;13.13;;
2434;SDS011;1228;51.022;6.764;2022-12-11T15:55:14;17.33;;;13.27;;
2434;SDS011;1228;51.022;6.764;2022-12-11T15:57:42;24.83;;;15.57;;
2434;SDS011;1228;51.022;6.764;2022-12-11T16:00:15;20.37;;;13.17;;
2434;SDS011;1228;51.022;6.764;2022-12-11T16:02:42;21.60;;;14.17;;
2434;SDS011;1228;51.022;6.764;2022-12-11T16:05:09;19.73;;;13.87;;
2434;SDS011;1228;51.022;6.764;2022-12-11T16:07:34;23.87;;;14.73;;
2434;SDS011;1228;51.022;6.764;2022-12-11T16:10:02;15.33;;;12.43;;
2434;SDS011;1228;51.022;6.764;2022-12-11T16:12:28;22.87;;;14.07;;
2434;SDS011;1228;51.022;6.764;2022-12-11T16:14:54;18.90;;;15.07;;
2434;SDS011;1228;51.022;6.764;2022-12-11T16:17:19;21.17;;;13.23;;
2434;SDS011;1228;51.022;6.764;2022-12-11T16:19:45;21.23;;;11.77;;
2434;SDS011;1228;51.022;6.764;2022-12-11T16:22:11;15.70;;;13.30;;
2434;SDS011;1228;51.022;6.764;2022-12-11T16:24:37;21.33;;;13.10;;
2434;SDS011;1228;51.022;6.764;2022-12-11T16:27:04;19.77;;;14.53;;
2434;SDS011;1228;51.022;6.764;2022-12-11T16:29:37;20.33;;;12.73;;
2434;SDS011;1228;51.022;6.764;2022-12-11T16:32:05;27.87;;;14.60;;
2434;SDS011;1228;51.022;6.764;2022-12-11T16:34:32;35.77;;;15.83;;
2434;SDS011;1228;51.022;6.764;2022-12-11T16:36:58;22.57;;;14.00;;
2434;SDS011;1228;51.022;6.764;2022-12-11T16:39:25;18.70;;;12.30;;